sensor_id;sensor_type;location;lat;lon;timestamp;pressure;altitude;pressure_sealevel;temperature;humidity
27958;BME280;15295;42.658;23.374;2022-11-20T00:00:12;93864.66;;;19.40;51.88
27958;BME280;15295;42.658;23.374;2022-11-20T00:03:03;93928.47;;;19.78;52.15
27958;BME280;15295;42.658;23.374;2022-11-20T00:05:52;93869.16;;;19.29;52.89
27958;BME280;15295;42.658;23.374;2022-11-20T00:08:20;93888.81;;;19.40;52.54
27958;BME280;15295;42.658;23.374;2022-11-20T00:11:09;93912.34;;;19.68;52.56
27958;BME280;15295;42.658;23.374;2022-11-20T00:13:42;93882.41;;;19.57;52.18
27958;BME280;15295;42.658;23.374;2022-11-20T00:16:15;93905.84;;;19.80;52.17
27958;BME280;15295;42.658;23.374;2022-11-20T00:18:45;93869.13;;;19.38;52.32
27958;BME280;15295;42.658;23.374;2022-11-20T00:21:23;93900.31;;;19.47;52.00
27958;BME280;15295;42.658;23.374;2022-11-20T00:24:01;93897.91;;;19.87;52.00
27958;BME280;15295;42.658;23.374;2022-11-20T00:26:35;93888.66;;;19.67;51.75
27958;BME280;15295;42.658;23.374;2022-11-20T00:29:32;93926.41;;;19.64;51.73
27958;BME280;15295;42.658;23.374;2022-11-20T00:32:29;93847.53;;;19.65;51.66
27958;BME280;15295;42.658;23.374;2022-11-20T00:35:19;93864.84;;;19.60;49.96
27958;BME280;15295;42.658;23.374;2022-11-20T00:37:50;93851.78;;;19.75;49.69
27958;BME280;15295;42.658;23.374;2022-11-20T00:40:27;93857.03;;;19.73;49.86
27958;BME280;15295;42.658;23.374;2022-11-20T00:43:03;93844.63;;;19.83;49.43
27958;BME280;15295;42.658;23.374;2022-11-20T00:45:33;93855.19;;;19.94;49.33
27958;BME280;15295;42.658;23.374;2022-11-20T00:48:09;93900.75;;;20.17;49.04
27958;BME280;15295;42.658;23.374;2022-11-20T00:50:36;93901.78;;;20.28;49.16
27958;BME280;15295;42.658;23.374;2022-11-20T00:58:22;93927.16;;;20.36;47.30
27958;BME280;15295;42.658;23.374;2022-11-20T01:01:11;93902.56;;;20.58;45.99
27958;BME280;15295;42.658;23.374;2022-11-20T01:03:49;93879.78;;;20.68;45.73
27958;BME280;15295;42.658;23.374;2022-11-20T01:06:33;93910.53;;;20.65;46.34
27958;BME280;15295;42.658;23.374;2022-11-20T01:09:09;93861.78;;;20.64;45.42
27958;BME280;15295;42.658;23.374;2022-11-20T01:12:03;93858.75;;;20.91;44.68
27958;BME280;15295;42.658;23.374;2022-11-20T01:14:41;93869.56;;;20.89;44.21
27958;BME280;15295;42.658;23.374;2022-11-20T01:17:14;93874.13;;;21.21;43.74
27958;BME280;15295;42.658;23.374;2022-11-20T01:19:49;93833.31;;;21.13;43.55
27958;BME280;15295;42.658;23.374;2022-11-20T01:22:23;93865.84;;;21.41;43.27
27958;BME280;15295;42.658;23.374;2022-11-20T01:25:29;93878.88;;;21.35;43.68
27958;BME280;15295;42.658;23.374;2022-11-20T01:28:05;93830.03;;;21.29;43.02
27958;BME280;15295;42.658;23.374;2022-11-20T01:30:40;93846.38;;;21.41;43.19
27958;BME280;15295;42.658;23.374;2022-11-20T01:33:17;93886.00;;;21.57;43.47
27958;BME280;15295;42.658;23.374;2022-11-20T01:35:53;93835.66;;;21.34;43.16
27958;BME280;15295;42.658;23.374;2022-11-20T01:38:26;93863.94;;;21.68;43.05
27958;BME280;15295;42.658;23.374;2022-11-20T01:40:55;93850.81;;;21.53;43.06
27958;BME280;15295;42.658;23.374;2022-11-20T01:43:33;93824.91;;;21.42;43.26
27958;BME280;15295;42.658;23.374;2022-11-20T01:49:00;93853.66;;;21.39;43.96
27958;BME280;15295;42.658;23.374;2022-11-20T01:51:45;93820.09;;;21.22;44.07
27958;BME280;15295;42.658;23.374;2022-11-20T01:54:31;93818.97;;;21.00;44.64
27958;BME280;15295;42.658;23.374;2022-11-20T01:57:06;93782.13;;;20.85;45.22
27958;BME280;15295;42.658;23.374;2022-11-20T01:59:41;93848.84;;;21.05;45.39
27958;BME280;15295;42.658;23.374;2022-11-20T02:02:13;93835.91;;;20.87;45.03
27958;BME280;15295;42.658;23.374;2022-11-20T02:04:47;93791.72;;;20.69;45.00
27958;BME280;15295;42.658;23.374;2022-11-20T02:07:18;93821.75;;;20.85;44.93
27958;BME280;15295;42.658;23.374;2022-11-20T02:09:52;93825.19;;;20.95;45.15
27958;BME280;15295;42.658;23.374;2022-11-20T02:12:27;93854.09;;;21.17;44.92
27958;BME280;15295;42.658;23.374;2022-11-20T02:15:16;93860.53;;;20.94;44.74
27958;BME280;15295;42.658;23.374;2022-11-20T02:17:45;93845.13;;;20.93;44.76
27958;BME280;15295;42.658;23.374;2022-11-20T02:20:18;93880.81;;;21.29;43.17
27958;BME280;15295;42.658;23.374;2022-11-20T02:23:16;93848.31;;;21.35;42.84
27958;BME280;15295;42.658;23.374;2022-11-20T02:25:57;93854.16;;;21.37;43.14
27958;BME280;15295;42.658;23.374;2022-11-20T02:28:29;93866.50;;;21.36;43.72
27958;BME280;15295;42.658;23.374;2022-11-20T02:31:04;93819.69;;;21.29;43.38
27958;BME280;15295;42.658;23.374;2022-11-20T02:33:42;93810.03;;;21.25;43.02
27958;BME280;15295;42.658;23.374;2022-11-20T02:36:14;93809.19;;;21.19;43.27
27958;BME280;15295;42.658;23.374;2022-11-20T02:38:44;93868.41;;;21.45;43.00
27958;BME280;15295;42.658;23.374;2022-11-20T02:41:36;93879.00;;;21.61;43.26
27958;BME280;15295;42.658;23.374;2022-11-20T02:44:09;93840.97;;;21.52;41.04
27958;BME280;15295;42.658;23.374;2022-11-20T02:46:51;93850.09;;;21.73;40.77
27958;BME280;15295;42.658;23.374;2022-11-20T02:49:18;93851.41;;;21.78;41.27
27958;BME280;15295;42.658;23.374;2022-11-20T02:51:46;93858.91;;;21.72;40.69
27958;BME280;15295;42.658;23.374;2022-11-20T02:54:20;93840.50;;;21.74;40.48
27958;BME280;15295;42.658;23.374;2022-11-20T02:56:55;93874.66;;;21.95;39.84
27958;BME280;15295;42.658;23.374;2022-11-20T02:59:45;93929.56;;;22.14;39.71
27958;BME280;15295;42.658;23.374;2022-11-20T03:02:31;93882.84;;;22.24;39.35
27958;BME280;15295;42.658;23.374;2022-11-20T03:05:06;93865.84;;;22.42;38.91
27958;BME280;15295;42.658;23.374;2022-11-20T03:08:01;93948.34;;;22.85;38.31
27958;BME280;15295;42.658;23.374;2022-11-20T03:10:37;93887.69;;;22.49;38.88
27958;BME280;15295;42.658;23.374;2022-11-20T03:13:07;93871.69;;;22.44;38.92
27958;BME280;15295;42.658;23.374;2022-11-20T03:15:45;93927.44;;;22.95;38.23
27958;BME280;15295;42.658;23.374;2022-11-20T03:18:18;93914.19;;;22.90;38.64
27958;BME280;15295;42.658;23.374;2022-11-20T03:21:24;93899.91;;;22.77;38.61
27958;BME280;15295;42.658;23.374;2022-11-20T03:23:54;93872.88;;;22.83;38.16
27958;BME280;15295;42.658;23.374;2022-11-20T03:26:38;93888.50;;;23.07;37.96
27958;BME280;15295;42.658;23.374;2022-11-20T03:29:14;93913.09;;;23.34;37.70
27958;BME280;15295;42.658;23.374;2022-11-20T03:32:05;93888.94;;;22.99;37.68
27958;BME280;15295;42.658;23.374;2022-11-20T03:35:28;93929.69;;;23.23;37.54
27958;BME280;15295;42.658;23.374;2022-11-20T03:38:02;93879.91;;;22.79;38.05
27958;BME280;15295;42.658;23.374;2022-11-20T03:40:31;93929.38;;;23.15;37.59
27958;BME280;15295;42.658;23.374;2022-11-20T03:43:03;93907.03;;;23.10;37.91
27958;BME280;15295;42.658;23.374;2022-11-20T03:45:59;93889.22;;;23.01;37.53
27958;BME280;15295;42.658;23.374;2022-11-20T03:48:27;93918.44;;;23.37;37.19
27958;BME280;15295;42.658;23.374;2022-11-20T03:51:19;93907.22;;;23.32;37.30
27958;BME280;15295;42.658;23.374;2022-11-20T03:54:04;93888.69;;;23.29;37.37
27958;BME280;15295;42.658;23.374;2022-11-20T04:02:30;93940.63;;;23.52;36.85
27958;BME280;15295;42.658;23.374;2022-11-20T04:07:54;93913.72;;;23.23;37.34
27958;BME280;15295;42.658;23.374;2022-11-20T04:10:26;93912.31;;;23.33;36.70
27958;BME280;15295;42.658;23.374;2022-11-20T04:13:24;93911.00;;;23.29;36.75
27958;BME280;15295;42.658;23.374;2022-11-20T04:21:12;93902.56;;;22.92;37.01
27958;BME280;15295;42.658;23.374;2022-11-20T04:24:08;93899.19;;;22.82;37.10
27958;BME280;15295;42.658;23.374;2022-11-20T04:27:10;93923.81;;;23.15;36.87
27958;BME280;15295;42.658;23.374;2022-11-20T04:30:09;93904.88;;;22.93;36.87
27958;BME280;15295;42.658;23.374;2022-11-20T04:33:14;93913.28;;;22.73;37.62
27958;BME280;15295;42.658;23.374;2022-11-20T04:36:11;93907.53;;;22.82;37.69
27958;BME280;15295;42.658;23.374;2022-11-20T04:38:53;93911.31;;;22.79;37.82
27958;BME280;15295;42.658;23.374;2022-11-20T04:42:07;93968.91;;;23.14;38.25
27958;BME280;15295;42.658;23.374;2022-11-20T04:45:02;93905.91;;;22.96;37.95
27958;BME280;15295;42.658;23.374;2022-11-20T04:47:53;93912.53;;;22.98;38.23
27958;BME280;15295;42.658;23.374;2022-11-20T04:50:54;93930.34;;;23.38;37.73
27958;BME280;15295;42.658;23.374;2022-11-20T04:53:33;93940.75;;;23.37;38.10
27958;BME280;15295;42.658;23.374;2022-11-20T04:56:23;93905.25;;;23.07;38.00
27958;BME280;15295;42.658;23.374;2022-11-20T05:01:37;93901.00;;;23.17;38.06
27958;BME280;15295;42.658;23.374;2022-11-20T05:14:52;93897.19;;;23.14;38.19
27958;BME280;15295;42.658;23.374;2022-11-20T05:18:20;93903.63;;;22.94;39.26
27958;BME280;15295;42.658;23.374;2022-11-20T05:21:10;93900.25;;;22.90;39.59
27958;BME280;15295;42.658;23.374;2022-11-20T05:24:36;93906.72;;;22.76;41.00
27958;BME280;15295;42.658;23.374;2022-11-20T05:27:59;93857.50;;;22.42;41.89
27958;BME280;15295;42.658;23.374;2022-11-20T05:31:33;93907.22;;;22.55;43.34
27958;BME280;15295;42.658;23.374;2022-11-20T05:34:11;93877.63;;;22.32;43.63
27958;BME280;15295;42.658;23.374;2022-11-20T05:36:51;93858.16;;;21.71;45.14
27958;BME280;15295;42.658;23.374;2022-11-20T05:39:26;93856.63;;;21.70;45.12
27958;BME280;15295;42.658;23.374;2022-11-20T05:42:12;93905.13;;;21.84;45.88
27958;BME280;15295;42.658;23.374;2022-11-20T05:45:03;93875.84;;;21.53;46.08
27958;BME280;15295;42.658;23.374;2022-11-20T05:47:59;93865.31;;;21.58;45.90
27958;BME280;15295;42.658;23.374;2022-11-20T05:51:00;93819.72;;;21.15;46.09
27958;BME280;15295;42.658;23.374;2022-11-20T05:53:36;93813.03;;;21.07;46.25
27958;BME280;15295;42.658;23.374;2022-11-20T05:56:27;93867.94;;;21.46;45.87
27958;BME280;15295;42.658;23.374;2022-11-20T05:59:02;93869.78;;;21.35;46.23
27958;BME280;15295;42.658;23.374;2022-11-20T06:02:18;93900.56;;;21.66;45.95
27958;BME280;15295;42.658;23.374;2022-11-20T06:05:28;93849.28;;;21.32;45.66
27958;BME280;15295;42.658;23.374;2022-11-20T06:08:29;93901.41;;;21.72;45.91
27958;BME280;15295;42.658;23.374;2022-11-20T06:11:17;93854.81;;;21.32;45.71
27958;BME280;15295;42.658;23.374;2022-11-20T06:14:03;93892.06;;;21.75;45.48
27958;BME280;15295;42.658;23.374;2022-11-20T06:16:34;93874.28;;;21.32;45.63
27958;BME280;15295;42.658;23.374;2022-11-20T06:19:45;93911.06;;;21.77;45.29
27958;BME280;15295;42.658;23.374;2022-11-20T06:22:54;93858.81;;;21.46;45.42
27958;BME280;15295;42.658;23.374;2022-11-20T06:25:49;93935.59;;;21.93;45.07
27958;BME280;15295;42.658;23.374;2022-11-20T06:28:52;93897.16;;;21.77;45.06
27958;BME280;15295;42.658;23.374;2022-11-20T06:31:53;93874.81;;;21.51;45.06
27958;BME280;15295;42.658;23.374;2022-11-20T06:34:42;93882.91;;;21.69;44.81
27958;BME280;15295;42.658;23.374;2022-11-20T06:37:45;93893.41;;;21.80;44.98
27958;BME280;15295;42.658;23.374;2022-11-20T06:40:33;93892.63;;;21.94;44.41
27958;BME280;15295;42.658;23.374;2022-11-20T06:43:04;93908.06;;;22.15;43.84
27958;BME280;15295;42.658;23.374;2022-11-20T06:45:57;93900.94;;;22.14;43.26
27958;BME280;15295;42.658;23.374;2022-11-20T06:49:14;93888.44;;;22.04;43.49
27958;BME280;15295;42.658;23.374;2022-11-20T06:52:42;93885.63;;;22.24;44.00
27958;BME280;15295;42.658;23.374;2022-11-20T06:57:53;93888.34;;;22.39;43.71
27958;BME280;15295;42.658;23.374;2022-11-20T07:00:19;93942.00;;;22.85;43.71
27958;BME280;15295;42.658;23.374;2022-11-20T07:02:45;93925.59;;;22.67;43.29
27958;BME280;15295;42.658;23.374;2022-11-20T07:05:10;93955.16;;;22.84;42.90
27958;BME280;15295;42.658;23.374;2022-11-20T07:07:36;93927.97;;;22.74;42.73
27958;BME280;15295;42.658;23.374;2022-11-20T07:10:01;93965.63;;;22.89;43.02
27958;BME280;15295;42.658;23.374;2022-11-20T07:12:28;93934.81;;;22.73;42.47
27958;BME280;15295;42.658;23.374;2022-11-20T07:14:54;93922.94;;;22.78;42.95
27958;BME280;15295;42.658;23.374;2022-11-20T07:17:20;93952.63;;;23.07;42.75
27958;BME280;15295;42.658;23.374;2022-11-20T07:19:48;93939.88;;;23.00;42.38
27958;BME280;15295;42.658;23.374;2022-11-20T07:22:15;93947.47;;;22.99;42.13
27958;BME280;15295;42.658;23.374;2022-11-20T07:24:42;93952.06;;;23.02;42.03
27958;BME280;15295;42.658;23.374;2022-11-20T07:27:08;93950.53;;;23.01;41.38
27958;BME280;15295;42.658;23.374;2022-11-20T07:29:35;93941.78;;;22.88;41.07
27958;BME280;15295;42.658;23.374;2022-11-20T07:32:02;93940.47;;;22.84;41.17
27958;BME280;15295;42.658;23.374;2022-11-20T07:34:29;93957.91;;;23.05;41.74
27958;BME280;15295;42.658;23.374;2022-11-20T07:36:54;93957.41;;;23.06;41.57
27958;BME280;15295;42.658;23.374;2022-11-20T07:39:27;93954.69;;;23.12;41.31
27958;BME280;15295;42.658;23.374;2022-11-20T07:41:53;93949.88;;;23.12;41.31
27958;BME280;15295;42.658;23.374;2022-11-20T07:44:23;93942.97;;;23.08;41.58
27958;BME280;15295;42.658;23.374;2022-11-20T07:46:50;93936.56;;;22.96;41.03
27958;BME280;15295;42.658;23.374;2022-11-20T07:49:15;93962.22;;;23.06;41.00
27958;BME280;15295;42.658;23.374;2022-11-20T07:51:44;93965.84;;;23.12;41.21
27958;BME280;15295;42.658;23.374;2022-11-20T07:54:09;93953.47;;;22.92;41.05
27958;BME280;15295;42.658;23.374;2022-11-20T07:56:36;93949.59;;;22.84;41.15
27958;BME280;15295;42.658;23.374;2022-11-20T07:59:03;93968.13;;;22.87;41.44
27958;BME280;15295;42.658;23.374;2022-11-20T08:01:29;93973.28;;;22.94;41.14
27958;BME280;15295;42.658;23.374;2022-11-20T08:03:55;93968.31;;;22.84;41.41
27958;BME280;15295;42.658;23.374;2022-11-20T08:06:21;93957.56;;;22.71;41.45
27958;BME280;15295;42.658;23.374;2022-11-20T08:08:47;93972.75;;;22.70;41.52
27958;BME280;15295;42.658;23.374;2022-11-20T08:11:12;93973.44;;;22.85;41.94
27958;BME280;15295;42.658;23.374;2022-11-20T08:13:56;93949.31;;;22.82;41.58
27958;BME280;15295;42.658;23.374;2022-11-20T08:16:50;93914.84;;;22.80;40.99
27958;BME280;15295;42.658;23.374;2022-11-20T08:19:16;93936.88;;;23.03;40.25
27958;BME280;15295;42.658;23.374;2022-11-20T08:21:44;93955.78;;;23.20;40.33
27958;BME280;15295;42.658;23.374;2022-11-20T08:24:13;93960.59;;;23.19;40.23
27958;BME280;15295;42.658;23.374;2022-11-20T08:26:39;93957.53;;;23.17;39.97
27958;BME280;15295;42.658;23.374;2022-11-20T08:29:05;93954.31;;;23.24;39.78
27958;BME280;15295;42.658;23.374;2022-11-20T08:31:31;93967.59;;;23.35;39.30
27958;BME280;15295;42.658;23.374;2022-11-20T08:33:57;93962.31;;;23.42;39.18
27958;BME280;15295;42.658;23.374;2022-11-20T08:36:26;93970.28;;;23.55;39.23
27958;BME280;15295;42.658;23.374;2022-11-20T08:38:54;93967.75;;;23.57;39.68
27958;BME280;15295;42.658;23.374;2022-11-20T08:41:20;93972.63;;;23.62;39.50
27958;BME280;15295;42.658;23.374;2022-11-20T08:43:53;93966.25;;;23.56;39.36
27958;BME280;15295;42.658;23.374;2022-11-20T08:46:21;93971.91;;;23.67;39.48
27958;BME280;15295;42.658;23.374;2022-11-20T08:48:47;93981.25;;;23.64;38.64
27958;BME280;15295;42.658;23.374;2022-11-20T08:51:20;93970.53;;;23.51;38.53
27958;BME280;15295;42.658;23.374;2022-11-20T08:53:47;94014.75;;;23.69;39.29
27958;BME280;15295;42.658;23.374;2022-11-20T08:56:20;93987.38;;;23.37;39.56
27958;BME280;15295;42.658;23.374;2022-11-20T08:58:50;94016.44;;;23.56;39.71
27958;BME280;15295;42.658;23.374;2022-11-20T09:01:19;94000.13;;;23.43;39.77
27958;BME280;15295;42.658;23.374;2022-11-20T09:03:48;94009.78;;;23.48;40.05
27958;BME280;15295;42.658;23.374;2022-11-20T09:06:15;94006.50;;;23.49;40.17
27958;BME280;15295;42.658;23.374;2022-11-20T09:08:41;94004.97;;;23.48;40.80
27958;BME280;15295;42.658;23.374;2022-11-20T09:11:13;94002.44;;;23.50;39.96
27958;BME280;15295;42.658;23.374;2022-11-20T09:13:44;94024.44;;;23.43;41.10
27958;BME280;15295;42.658;23.374;2022-11-20T09:16:21;94011.22;;;23.38;41.35
27958;BME280;15295;42.658;23.374;2022-11-20T09:18:49;93992.94;;;23.11;42.84
27958;BME280;15295;42.658;23.374;2022-11-20T09:23:50;94008.91;;;23.11;43.29
27958;BME280;15295;42.658;23.374;2022-11-20T09:26:15;94007.81;;;23.02;43.81
27958;BME280;15295;42.658;23.374;2022-11-20T09:28:41;94004.06;;;22.85;44.48
27958;BME280;15295;42.658;23.374;2022-11-20T09:31:22;94013.63;;;22.79;43.96
27958;BME280;15295;42.658;23.374;2022-11-20T09:33:55;94010.97;;;22.70;43.76
27958;BME280;15295;42.658;23.374;2022-11-20T09:36:58;94004.16;;;22.51;44.09
27958;BME280;15295;42.658;23.374;2022-11-20T09:39:41;93974.38;;;22.37;45.13
27958;BME280;15295;42.658;23.374;2022-11-20T09:51:15;93929.06;;;22.16;45.49
27958;BME280;15295;42.658;23.374;2022-11-20T09:53:52;93980.31;;;22.50;45.33
27958;BME280;15295;42.658;23.374;2022-11-20T09:56:56;93977.63;;;22.55;45.71
27958;BME280;15295;42.658;23.374;2022-11-20T10:05:12;93952.09;;;22.37;46.98
27958;BME280;15295;42.658;23.374;2022-11-20T10:07:50;93933.84;;;22.36;45.91
27958;BME280;15295;42.658;23.374;2022-11-20T10:10:47;93939.91;;;22.34;45.54
27958;BME280;15295;42.658;23.374;2022-11-20T10:25:09;93937.25;;;22.45;45.86
27958;BME280;15295;42.658;23.374;2022-11-20T10:30:37;93931.56;;;22.34;46.07
27958;BME280;15295;42.658;23.374;2022-11-20T10:33:21;93936.91;;;22.38;46.89
27958;BME280;15295;42.658;23.374;2022-11-20T10:35:59;93939.38;;;22.30;46.46
27958;BME280;15295;42.658;23.374;2022-11-20T10:38:43;93942.69;;;22.34;46.95
27958;BME280;15295;42.658;23.374;2022-11-20T10:41:21;93929.81;;;22.37;46.83
27958;BME280;15295;42.658;23.374;2022-11-20T10:44:02;93941.00;;;22.42;46.65
27958;BME280;15295;42.658;23.374;2022-11-20T10:46:34;93933.06;;;22.35;46.29
27958;BME280;15295;42.658;23.374;2022-11-20T10:49:05;93948.88;;;22.44;46.21
27958;BME280;15295;42.658;23.374;2022-11-20T10:51:44;93943.78;;;22.42;46.23
27958;BME280;15295;42.658;23.374;2022-11-20T10:56:50;93952.69;;;22.46;46.94
27958;BME280;15295;42.658;23.374;2022-11-20T11:01:45;93972.19;;;22.46;46.90
27958;BME280;15295;42.658;23.374;2022-11-20T11:04:38;93961.47;;;22.39;47.78
27958;BME280;15295;42.658;23.374;2022-11-20T11:07:20;93983.75;;;22.39;47.95
27958;BME280;15295;42.658;23.374;2022-11-20T11:09:52;93986.59;;;22.24;48.36
27958;BME280;15295;42.658;23.374;2022-11-20T11:12:19;93986.31;;;22.22;48.79
27958;BME280;15295;42.658;23.374;2022-11-20T11:14:53;93994.59;;;22.17;48.90
27958;BME280;15295;42.658;23.374;2022-11-20T11:17:30;94025.69;;;22.15;49.75
27958;BME280;15295;42.658;23.374;2022-11-20T11:20:06;94028.06;;;21.88;51.35
27958;BME280;15295;42.658;23.374;2022-11-20T11:22:52;94024.28;;;21.27;50.18
27958;BME280;15295;42.658;23.374;2022-11-20T11:28:03;94001.19;;;20.68;49.27
27958;BME280;15295;42.658;23.374;2022-11-20T11:30:40;94001.03;;;20.71;48.69
27958;BME280;15295;42.658;23.374;2022-11-20T11:33:18;93999.75;;;20.58;47.58
27958;BME280;15295;42.658;23.374;2022-11-20T11:35:55;94016.84;;;20.42;46.57
27958;BME280;15295;42.658;23.374;2022-11-20T11:38:43;94033.09;;;20.02;47.42
27958;BME280;15295;42.658;23.374;2022-11-20T11:41:16;94020.50;;;19.91;48.15
27958;BME280;15295;42.658;23.374;2022-11-20T11:43:52;94012.34;;;19.55;47.75
27958;BME280;15295;42.658;23.374;2022-11-20T11:46:37;94017.91;;;19.55;48.71
27958;BME280;15295;42.658;23.374;2022-11-20T11:57:47;94012.66;;;18.97;50.05
27958;BME280;15295;42.658;23.374;2022-11-20T12:00:17;93999.59;;;18.89;51.15
27958;BME280;15295;42.658;23.374;2022-11-20T12:05:34;93969.91;;;18.89;50.36
27958;BME280;15295;42.658;23.374;2022-11-20T12:10:44;93977.84;;;19.14;49.58
27958;BME280;15295;42.658;23.374;2022-11-20T12:15:44;94028.84;;;18.72;51.28
27958;BME280;15295;42.658;23.374;2022-11-20T12:18:15;93977.25;;;19.01;50.00
27958;BME280;15295;42.658;23.374;2022-11-20T12:20:45;93968.56;;;18.21;52.54
27958;BME280;15295;42.658;23.374;2022-11-20T12:23:31;94004.41;;;18.61;52.09
27958;BME280;15295;42.658;23.374;2022-11-20T12:26:08;94007.31;;;18.48;50.34
27958;BME280;15295;42.658;23.374;2022-11-20T12:28:49;94009.63;;;18.59;51.26
27958;BME280;15295;42.658;23.374;2022-11-20T12:36:56;94013.47;;;18.53;50.54
27958;BME280;15295;42.658;23.374;2022-11-20T12:39:34;93988.41;;;18.38;51.24
27958;BME280;15295;42.658;23.374;2022-11-20T12:43:02;93952.75;;;18.49;50.33
27958;BME280;15295;42.658;23.374;2022-11-20T12:45:22;93895.44;;;18.50;50.01
27958;BME280;15295;42.658;23.374;2022-11-20T12:53:40;93913.44;;;18.45;49.67
27958;BME280;15295;42.658;23.374;2022-11-20T13:07:04;93880.72;;;18.85;50.77
27958;BME280;15295;42.658;23.374;2022-11-20T13:09:32;93867.97;;;18.79;50.98
27958;BME280;15295;42.658;23.374;2022-11-20T13:12:34;93859.69;;;18.79;51.24
27958;BME280;15295;42.658;23.374;2022-11-20T13:15:07;93869.94;;;18.96;51.25
27958;BME280;15295;42.658;23.374;2022-11-20T13:17:52;93884.78;;;19.08;51.24
27958;BME280;15295;42.658;23.374;2022-11-20T13:20:19;93912.47;;;19.08;51.70
27958;BME280;15295;42.658;23.374;2022-11-20T13:22:50;93931.13;;;19.07;52.03
27958;BME280;15295;42.658;23.374;2022-11-20T13:27:50;93875.09;;;19.03;51.03
27958;BME280;15295;42.658;23.374;2022-11-20T13:30:24;93889.03;;;18.85;51.27
27958;BME280;15295;42.658;23.374;2022-11-20T13:38:09;93931.22;;;19.13;52.31
27958;BME280;15295;42.658;23.374;2022-11-20T13:40:38;93902.66;;;19.07;51.81
27958;BME280;15295;42.658;23.374;2022-11-20T13:48:24;93942.44;;;19.18;51.99
27958;BME280;15295;42.658;23.374;2022-11-20T13:57:59;93947.94;;;19.27;52.11
27958;BME280;15295;42.658;23.374;2022-11-20T14:02:37;93970.41;;;19.39;51.67
27958;BME280;15295;42.658;23.374;2022-11-20T14:05:05;93964.09;;;19.38;51.61
27958;BME280;15295;42.658;23.374;2022-11-20T14:07:42;93933.47;;;19.33;51.29
27958;BME280;15295;42.658;23.374;2022-11-20T14:10:25;93956.06;;;19.40;51.54
27958;BME280;15295;42.658;23.374;2022-11-20T14:12:51;93949.91;;;19.45;51.47
27958;BME280;15295;42.658;23.374;2022-11-20T14:15:43;93923.25;;;19.48;51.78
27958;BME280;15295;42.658;23.374;2022-11-20T14:18:20;93927.25;;;19.47;51.95
27958;BME280;15295;42.658;23.374;2022-11-20T14:20:47;93940.47;;;19.52;51.80
27958;BME280;15295;42.658;23.374;2022-11-20T14:23:26;93940.47;;;19.52;51.71
27958;BME280;15295;42.658;23.374;2022-11-20T14:25:51;93930.81;;;19.47;51.56
27958;BME280;15295;42.658;23.374;2022-11-20T14:28:28;93934.16;;;19.51;52.13
27958;BME280;15295;42.658;23.374;2022-11-20T14:30:54;93931.09;;;19.49;51.83
27958;BME280;15295;42.658;23.374;2022-11-20T14:33:21;93936.06;;;19.45;52.09
27958;BME280;15295;42.658;23.374;2022-11-20T14:35:52;93946.34;;;19.45;52.00
27958;BME280;15295;42.658;23.374;2022-11-20T14:38:29;93961.09;;;19.51;52.16
27958;BME280;15295;42.658;23.374;2022-11-20T14:41:07;93942.97;;;19.50;52.53
27958;BME280;15295;42.658;23.374;2022-11-20T14:43:33;93948.34;;;19.44;52.74
27958;BME280;15295;42.658;23.374;2022-11-20T14:46:03;93946.03;;;19.52;52.71
27958;BME280;15295;42.658;23.374;2022-11-20T14:48:34;93952.06;;;19.50;52.70
27958;BME280;15295;42.658;23.374;2022-11-20T14:51:02;93965.91;;;19.50;52.69
27958;BME280;15295;42.658;23.374;2022-11-20T14:53:27;93951.72;;;19.48;52.84
27958;BME280;15295;42.658;23.374;2022-11-20T14:55:58;93956.63;;;19.53;52.83
27958;BME280;15295;42.658;23.374;2022-11-20T14:58:27;93934.16;;;19.51;52.58
27958;BME280;15295;42.658;23.374;2022-11-20T15:00:55;93937.13;;;19.48;52.79
27958;BME280;15295;42.658;23.374;2022-11-20T15:03:22;93942.97;;;19.50;52.79
27958;BME280;15295;42.658;23.374;2022-11-20T15:05:49;93950.63;;;19.55;53.07
27958;BME280;15295;42.658;23.374;2022-11-20T15:08:16;93970.66;;;19.50;53.00
27958;BME280;15295;42.658;23.374;2022-11-20T15:10:46;93971.00;;;19.43;53.33
27958;BME280;15295;42.658;23.374;2022-11-20T15:13:16;93969.63;;;19.38;53.73
27958;BME280;15295;42.658;23.374;2022-11-20T15:15:48;93974.88;;;19.27;53.95
27958;BME280;15295;42.658;23.374;2022-11-20T15:18:16;93970.91;;;19.19;53.47
27958;BME280;15295;42.658;23.374;2022-11-20T15:20:42;93978.78;;;19.11;53.42
27958;BME280;15295;42.658;23.374;2022-11-20T15:23:13;93995.72;;;19.04;52.67
27958;BME280;15295;42.658;23.374;2022-11-20T15:25:40;93988.03;;;18.99;52.63
27958;BME280;15295;42.658;23.374;2022-11-20T15:28:15;93996.81;;;18.89;52.55
27958;BME280;15295;42.658;23.374;2022-11-20T15:30:41;94001.94;;;18.81;52.45
27958;BME280;15295;42.658;23.374;2022-11-20T15:33:08;94003.63;;;18.70;52.36
27958;BME280;15295;42.658;23.374;2022-11-20T15:35:36;94014.84;;;18.66;52.82
27958;BME280;15295;42.658;23.374;2022-11-20T15:38:02;94024.53;;;18.62;52.81
27958;BME280;15295;42.658;23.374;2022-11-20T15:40:27;94027.31;;;18.53;52.89
27958;BME280;15295;42.658;23.374;2022-11-20T15:42:53;94048.53;;;18.46;52.90
27958;BME280;15295;42.658;23.374;2022-11-20T15:45:37;94061.28;;;18.44;52.90
27958;BME280;15295;42.658;23.374;2022-11-20T15:48:04;94084.75;;;18.39;53.23
27958;BME280;15295;42.658;23.374;2022-11-20T15:50:37;94104.44;;;18.32;53.58
27958;BME280;15295;42.658;23.374;2022-11-20T15:53:03;94094.25;;;18.29;53.89
27958;BME280;15295;42.658;23.374;2022-11-20T15:55:29;94095.81;;;18.30;53.84
27958;BME280;15295;42.658;23.374;2022-11-20T15:57:55;94098.25;;;18.28;54.77
27958;BME280;15295;42.658;23.374;2022-11-20T16:00:20;94096.06;;;18.14;54.92
27958;BME280;15295;42.658;23.374;2022-11-20T16:02:46;94108.69;;;18.15;55.06